sensor_id;sensor_type;location;lat;lon;timestamp;pressure;altitude;pressure_sealevel;temperature;humidity
12247;BME280;6186;52.022;4.692;2023-07-13T00:01:55;101400.47;;;19.47;75.30
12247;BME280;6186;52.022;4.692;2023-07-13T00:04:22;101400.53;;;19.46;75.57
12247;BME280;6186;52.022;4.692;2023-07-13T00:06:48;101405.28;;;19.41;75.64
12247;BME280;6186;52.022;4.692;2023-07-13T00:09:15;101396.66;;;19.36;75.77
12247;BME280;6186;52.022;4.692;2023-07-13T00:11:41;101402.13;;;19.33;75.87
12247;BME280;6186;52.022;4.692;2023-07-13T00:14:07;101392.63;;;19.27;75.99
12247;BME280;6186;52.022;4.692;2023-07-13T00:16:34;101392.69;;;19.26;76.00
12247;BME280;6186;52.022;4.692;2023-07-13T00:18:59;101394.59;;;19.24;76.11
12247;BME280;6186;52.022;4.692;2023-07-13T00:21:25;101390.16;;;19.23;76.34
12247;BME280;6186;52.022;4.692;2023-07-13T00:23:50;101391.22;;;19.20;76.37
12247;BME280;6186;52.022;4.692;2023-07-13T00:26:15;101400.16;;;19.19;76.74
12247;BME280;6186;52.022;4.692;2023-07-13T00:28:40;101397.47;;;19.19;76.70
12247;BME280;6186;52.022;4.692;2023-07-13T00:31:08;101401.81;;;19.22;76.97
12247;BME280;6186;52.022;4.692;2023-07-13T00:33:33;101406.19;;;19.23;77.16
12247;BME280;6186;52.022;4.692;2023-07-13T00:35:58;101403.59;;;19.21;77.45
12247;BME280;6186;52.022;4.692;2023-07-13T00:38:24;101402.75;;;19.21;77.57
12247;BME280;6186;52.022;4.692;2023-07-13T00:40:49;101408.94;;;19.21;77.73
12247;BME280;6186;52.022;4.692;2023-07-13T00:43:19;101394.81;;;19.19;78.00
12247;BME280;6186;52.022;4.692;2023-07-13T00:48:12;101394.09;;;19.16;78.10
12247;BME280;6186;52.022;4.692;2023-07-13T00:50:39;101391.63;;;19.13;78.19
12247;BME280;6186;52.022;4.692;2023-07-13T00:53:05;101402.28;;;19.13;78.29
12247;BME280;6186;52.022;4.692;2023-07-13T00:55:31;101407.75;;;19.10;78.48
12247;BME280;6186;52.022;4.692;2023-07-13T00:57:57;101404.31;;;19.08;78.51
12247;BME280;6186;52.022;4.692;2023-07-13T01:00:25;101394.75;;;19.04;78.74
12247;BME280;6186;52.022;4.692;2023-07-13T01:02:50;101407.22;;;19.03;78.78
12247;BME280;6186;52.022;4.692;2023-07-13T01:05:19;101411.88;;;19.00;78.80
12247;BME280;6186;52.022;4.692;2023-07-13T01:07:45;101404.06;;;18.95;78.79
12247;BME280;6186;52.022;4.692;2023-07-13T01:10:12;101405.09;;;18.93;78.84
12247;BME280;6186;52.022;4.692;2023-07-13T01:12:38;101416.53;;;18.95;78.96
12247;BME280;6186;52.022;4.692;2023-07-13T01:15:04;101401.81;;;18.88;79.00
12247;BME280;6186;52.022;4.692;2023-07-13T01:17:31;101408.78;;;18.90;79.00
12247;BME280;6186;52.022;4.692;2023-07-13T01:19:57;101406.25;;;18.87;79.04
12247;BME280;6186;52.022;4.692;2023-07-13T01:22:22;101409.00;;;18.86;79.09
12247;BME280;6186;52.022;4.692;2023-07-13T01:24:48;101411.69;;;18.86;79.00
12247;BME280;6186;52.022;4.692;2023-07-13T01:27:15;101416.16;;;18.85;79.21
12247;BME280;6186;52.022;4.692;2023-07-13T01:29:43;101411.75;;;18.84;79.20
12247;BME280;6186;52.022;4.692;2023-07-13T01:32:10;101417.19;;;18.83;79.13
12247;BME280;6186;52.022;4.692;2023-07-13T01:34:36;101414.72;;;18.78;79.23
12247;BME280;6186;52.022;4.692;2023-07-13T01:37:01;101422.13;;;18.73;79.22
12247;BME280;6186;52.022;4.692;2023-07-13T01:39:26;101431.13;;;18.70;79.31
12247;BME280;6186;52.022;4.692;2023-07-13T01:41:52;101432.13;;;18.68;79.26
12247;BME280;6186;52.022;4.692;2023-07-13T01:44:17;101432.19;;;18.66;79.43
12247;BME280;6186;52.022;4.692;2023-07-13T01:46:42;101432.38;;;18.63;79.40
12247;BME280;6186;52.022;4.692;2023-07-13T01:49:07;101433.38;;;18.61;79.51
12247;BME280;6186;52.022;4.692;2023-07-13T01:51:32;101440.50;;;18.60;79.67
12247;BME280;6186;52.022;4.692;2023-07-13T01:53:58;101436.91;;;18.61;79.91
12247;BME280;6186;52.022;4.692;2023-07-13T01:56:23;101441.28;;;18.62;80.12
12247;BME280;6186;52.022;4.692;2023-07-13T01:58:48;101450.97;;;18.65;80.20
12247;BME280;6186;52.022;4.692;2023-07-13T02:01:14;101444.69;;;18.66;80.54
12247;BME280;6186;52.022;4.692;2023-07-13T02:03:39;101442.06;;;18.64;80.54
12247;BME280;6186;52.022;4.692;2023-07-13T02:06:04;101435.97;;;18.62;80.67
12247;BME280;6186;52.022;4.692;2023-07-13T02:08:31;101445.84;;;18.60;80.89
12247;BME280;6186;52.022;4.692;2023-07-13T02:10:56;101446.78;;;18.59;80.89
12247;BME280;6186;52.022;4.692;2023-07-13T02:13:22;101442.44;;;18.57;80.80
12247;BME280;6186;52.022;4.692;2023-07-13T02:15:50;101446.16;;;18.54;80.86
12247;BME280;6186;52.022;4.692;2023-07-13T02:18:15;101441.97;;;18.49;80.81
12247;BME280;6186;52.022;4.692;2023-07-13T02:20:40;101442.28;;;18.43;80.89
12247;BME280;6186;52.022;4.692;2023-07-13T02:23:06;101444.25;;;18.38;80.99
12247;BME280;6186;52.022;4.692;2023-07-13T02:25:31;101433.81;;;18.33;81.01
12247;BME280;6186;52.022;4.692;2023-07-13T02:27:56;101438.44;;;18.30;81.04
12247;BME280;6186;52.022;4.692;2023-07-13T02:30:22;101438.56;;;18.27;80.93
12247;BME280;6186;52.022;4.692;2023-07-13T02:32:47;101438.72;;;18.24;81.08
12247;BME280;6186;52.022;4.692;2023-07-13T02:35:12;101441.47;;;18.22;81.10
12247;BME280;6186;52.022;4.692;2023-07-13T02:37:37;101436.19;;;18.21;81.23
12247;BME280;6186;52.022;4.692;2023-07-13T02:40:03;101441.59;;;18.19;81.16
12247;BME280;6186;52.022;4.692;2023-07-13T02:42:28;101440.72;;;18.19;81.33
12247;BME280;6186;52.022;4.692;2023-07-13T02:44:53;101446.13;;;18.17;81.28
12247;BME280;6186;52.022;4.692;2023-07-13T02:47:19;101444.53;;;18.13;81.50
12247;BME280;6186;52.022;4.692;2023-07-13T02:49:44;101453.47;;;18.12;81.48
12247;BME280;6186;52.022;4.692;2023-07-13T02:52:09;101444.69;;;18.10;81.41
12247;BME280;6186;52.022;4.692;2023-07-13T02:54:34;101444.88;;;18.06;81.80
12247;BME280;6186;52.022;4.692;2023-07-13T02:56:59;101449.38;;;18.05;81.79
12247;BME280;6186;52.022;4.692;2023-07-13T02:59:25;101442.31;;;18.04;81.96
12247;BME280;6186;52.022;4.692;2023-07-13T03:01:50;101453.84;;;18.05;82.12
12247;BME280;6186;52.022;4.692;2023-07-13T03:04:15;101458.38;;;18.03;82.18
12247;BME280;6186;52.022;4.692;2023-07-13T03:06:40;101450.28;;;18.04;82.35
12247;BME280;6186;52.022;4.692;2023-07-13T03:09:06;101452.09;;;18.04;82.38
12247;BME280;6186;52.022;4.692;2023-07-13T03:11:31;101452.09;;;18.04;82.55
12247;BME280;6186;52.022;4.692;2023-07-13T03:13:56;101460.06;;;18.04;82.55
12247;BME280;6186;52.022;4.692;2023-07-13T03:16:22;101451.25;;;18.03;82.63
12247;BME280;6186;52.022;4.692;2023-07-13T03:18:48;101452.97;;;18.04;82.69
12247;BME280;6186;52.022;4.692;2023-07-13T03:21:13;101446.75;;;18.04;82.88
12247;BME280;6186;52.022;4.692;2023-07-13T03:23:40;101455.69;;;18.03;82.82
12247;BME280;6186;52.022;4.692;2023-07-13T03:26:08;101454.00;;;18.02;82.87
12247;BME280;6186;52.022;4.692;2023-07-13T03:28:34;101453.19;;;18.00;83.09
12247;BME280;6186;52.022;4.692;2023-07-13T03:31:06;101451.44;;;17.99;83.10
12247;BME280;6186;52.022;4.692;2023-07-13T03:33:33;101457.72;;;17.98;83.27
12247;BME280;6186;52.022;4.692;2023-07-13T03:35:58;101456.84;;;17.97;83.46
12247;BME280;6186;52.022;4.692;2023-07-13T03:38:23;101463.16;;;17.95;83.51
12247;BME280;6186;52.022;4.692;2023-07-13T03:40:49;101455.41;;;17.90;83.74
12247;BME280;6186;52.022;4.692;2023-07-13T03:43:14;101463.31;;;17.92;83.78
12247;BME280;6186;52.022;4.692;2023-07-13T03:45:40;101458.00;;;17.92;83.87
12247;BME280;6186;52.022;4.692;2023-07-13T03:48:05;101455.44;;;17.88;84.01
12247;BME280;6186;52.022;4.692;2023-07-13T03:50:31;101458.13;;;17.88;84.19
12247;BME280;6186;52.022;4.692;2023-07-13T03:52:57;101459.94;;;17.88;84.29
12247;BME280;6186;52.022;4.692;2023-07-13T03:55:23;101466.09;;;17.88;84.53
12247;BME280;6186;52.022;4.692;2023-07-13T03:57:54;101465.25;;;17.88;84.63
12247;BME280;6186;52.022;4.692;2023-07-13T04:00:22;101472.38;;;17.88;84.74
12247;BME280;6186;52.022;4.692;2023-07-13T04:02:47;101471.50;;;17.87;84.90
12247;BME280;6186;52.022;4.692;2023-07-13T04:05:13;101479.44;;;17.88;85.00
12247;BME280;6186;52.022;4.692;2023-07-13T04:07:38;101473.44;;;17.83;85.37
12247;BME280;6186;52.022;4.692;2023-07-13T04:10:03;101483.91;;;17.88;85.50
12247;BME280;6186;52.022;4.692;2023-07-13T04:12:29;101478.69;;;17.85;85.57
12247;BME280;6186;52.022;4.692;2023-07-13T04:14:54;101483.91;;;17.88;85.74
12247;BME280;6186;52.022;4.692;2023-07-13T04:17:19;101482.97;;;17.89;86.13
12247;BME280;6186;52.022;4.692;2023-07-13T04:19:44;101481.25;;;17.88;86.08
12247;BME280;6186;52.022;4.692;2023-07-13T04:22:10;101479.44;;;17.88;86.25
12247;BME280;6186;52.022;4.692;2023-07-13T04:24:35;101483.84;;;17.90;86.52
12247;BME280;6186;52.022;4.692;2023-07-13T04:27:00;101487.22;;;17.93;86.80
12247;BME280;6186;52.022;4.692;2023-07-13T04:29:25;101490.59;;;17.97;87.10
12247;BME280;6186;52.022;4.692;2023-07-13T04:31:50;101496.66;;;18.00;87.31
12247;BME280;6186;52.022;4.692;2023-07-13T04:34:16;101494.72;;;18.04;87.49
12247;BME280;6186;52.022;4.692;2023-07-13T04:36:41;101499.13;;;18.05;87.59
12247;BME280;6186;52.022;4.692;2023-07-13T04:39:06;101494.66;;;18.05;87.81
12247;BME280;6186;52.022;4.692;2023-07-13T04:41:31;101498.13;;;18.07;87.96
12247;BME280;6186;52.022;4.692;2023-07-13T04:43:56;101505.03;;;18.11;88.32
12247;BME280;6186;52.022;4.692;2023-07-13T04:46:22;101500.38;;;18.16;88.73
12247;BME280;6186;52.022;4.692;2023-07-13T04:48:49;101502.09;;;18.17;88.95
12247;BME280;6186;52.022;4.692;2023-07-13T04:51:15;101505.25;;;18.25;89.29
12247;BME280;6186;52.022;4.692;2023-07-13T04:53:40;101504.28;;;18.28;89.45
12247;BME280;6186;52.022;4.692;2023-07-13T04:56:05;101504.28;;;18.28;89.60
12247;BME280;6186;52.022;4.692;2023-07-13T04:58:31;101511.25;;;18.30;89.72
12247;BME280;6186;52.022;4.692;2023-07-13T05:01:04;101514.84;;;18.29;89.82
12247;BME280;6186;52.022;4.692;2023-07-13T05:03:29;101509.72;;;18.25;89.81
12247;BME280;6186;52.022;4.692;2023-07-13T05:06:00;101507.72;;;18.30;90.29
12247;BME280;6186;52.022;4.692;2023-07-13T05:08:26;101505.06;;;18.30;90.65
12247;BME280;6186;52.022;4.692;2023-07-13T05:10:51;101510.44;;;18.28;90.68
12247;BME280;6186;52.022;4.692;2023-07-13T05:13:17;101512.03;;;18.32;90.97
12247;BME280;6186;52.022;4.692;2023-07-13T05:15:42;101516.28;;;18.36;91.29
12247;BME280;6186;52.022;4.692;2023-07-13T05:18:08;101528.53;;;18.40;91.56
12247;BME280;6186;52.022;4.692;2023-07-13T05:20:33;101523.09;;;18.43;91.95
12247;BME280;6186;52.022;4.692;2023-07-13T05:22:58;101525.63;;;18.46;92.56
12247;BME280;6186;52.022;4.692;2023-07-13T05:25:23;101514.91;;;18.48;92.78
12247;BME280;6186;52.022;4.692;2023-07-13T05:27:48;101521.53;;;18.58;93.49
12247;BME280;6186;52.022;4.692;2023-07-13T05:30:14;101526.63;;;18.62;93.77
12247;BME280;6186;52.022;4.692;2023-07-13T05:32:39;101520.22;;;18.66;94.26
12247;BME280;6186;52.022;4.692;2023-07-13T05:35:05;101528.66;;;18.76;94.75
12247;BME280;6186;52.022;4.692;2023-07-13T05:37:30;101528.34;;;18.82;94.96
12247;BME280;6186;52.022;4.692;2023-07-13T05:39:56;101523.72;;;18.86;95.32
12247;BME280;6186;52.022;4.692;2023-07-13T05:42:21;101527.13;;;18.89;95.57
12247;BME280;6186;52.022;4.692;2023-07-13T05:44:46;101531.44;;;18.92;95.67
12247;BME280;6186;52.022;4.692;2023-07-13T05:47:11;101537.56;;;18.94;96.02
12247;BME280;6186;52.022;4.692;2023-07-13T05:49:37;101541.03;;;18.96;96.34
12247;BME280;6186;52.022;4.692;2023-07-13T05:52:02;101541.66;;;19.01;96.70
12247;BME280;6186;52.022;4.692;2023-07-13T05:54:27;101537.81;;;19.06;97.05
12247;BME280;6186;52.022;4.692;2023-07-13T05:56:52;101540.19;;;19.12;97.45
12247;BME280;6186;52.022;4.692;2023-07-13T05:59:18;101542.25;;;19.07;97.40
12247;BME280;6186;52.022;4.692;2023-07-13T06:01:43;101555.13;;;19.16;97.71
12247;BME280;6186;52.022;4.692;2023-07-13T06:04:08;101538.31;;;19.14;97.99
12247;BME280;6186;52.022;4.692;2023-07-13T06:06:33;101548.63;;;19.22;98.29
12247;BME280;6186;52.022;4.692;2023-07-13T06:08:59;101546.56;;;19.27;98.56
12247;BME280;6186;52.022;4.692;2023-07-13T06:11:26;101558.91;;;19.29;98.56
12247;BME280;6186;52.022;4.692;2023-07-13T06:13:52;101557.25;;;19.27;98.47
12247;BME280;6186;52.022;4.692;2023-07-13T06:16:17;101568.97;;;19.24;98.46
12247;BME280;6186;52.022;4.692;2023-07-13T06:18:43;101568.31;;;19.19;98.33
12247;BME280;6186;52.022;4.692;2023-07-13T06:21:11;101588.44;;;19.08;97.88
12247;BME280;6186;52.022;4.692;2023-07-13T06:23:37;101588.91;;;18.80;96.71
12247;BME280;6186;52.022;4.692;2023-07-13T06:26:03;101595.06;;;18.63;96.92
12247;BME280;6186;52.022;4.692;2023-07-13T06:28:29;101591.72;;;18.58;97.29
12247;BME280;6186;52.022;4.692;2023-07-13T06:30:54;101591.88;;;18.55;97.59
12247;BME280;6186;52.022;4.692;2023-07-13T06:33:19;101594.81;;;18.49;97.46
12247;BME280;6186;52.022;4.692;2023-07-13T06:35:44;101588.81;;;18.44;97.60
12247;BME280;6186;52.022;4.692;2023-07-13T06:38:10;101582.81;;;18.39;97.84
12247;BME280;6186;52.022;4.692;2023-07-13T06:40:35;101594.47;;;18.37;97.96
12247;BME280;6186;52.022;4.692;2023-07-13T06:43:00;101587.69;;;18.30;98.30
12247;BME280;6186;52.022;4.692;2023-07-13T06:45:25;101586.66;;;18.32;99.05
12247;BME280;6186;52.022;4.692;2023-07-13T06:47:50;101599.09;;;18.33;99.31
12247;BME280;6186;52.022;4.692;2023-07-13T06:50:16;101597.06;;;18.38;99.99
12247;BME280;6186;52.022;4.692;2023-07-13T06:52:41;101599.34;;;18.47;100.00
12247;BME280;6186;52.022;4.692;2023-07-13T06:55:06;101601.72;;;18.53;100.00
12247;BME280;6186;52.022;4.692;2023-07-13T06:57:32;101605.19;;;18.55;100.00
12247;BME280;6186;52.022;4.692;2023-07-13T06:59:57;101605.91;;;18.59;100.00
12247;BME280;6186;52.022;4.692;2023-07-13T07:02:22;101602.59;;;18.54;100.00
12247;BME280;6186;52.022;4.692;2023-07-13T07:04:47;101605.19;;;18.55;100.00
12247;BME280;6186;52.022;4.692;2023-07-13T07:07:13;101603.47;;;18.54;100.00
12247;BME280;6186;52.022;4.692;2023-07-13T07:09:38;101599.88;;;18.55;100.00
12247;BME280;6186;52.022;4.692;2023-07-13T07:12:04;101598.00;;;18.57;100.00
12247;BME280;6186;52.022;4.692;2023-07-13T07:14:29;101607.31;;;18.67;100.00
12247;BME280;6186;52.022;4.692;2023-07-13T07:16:55;101600.31;;;18.84;100.00
12247;BME280;6186;52.022;4.692;2023-07-13T07:19:20;101605.88;;;18.98;100.00
12247;BME280;6186;52.022;4.692;2023-07-13T07:21:45;101607.81;;;19.13;100.00
12247;BME280;6186;52.022;4.692;2023-07-13T07:24:11;101608.78;;;19.29;100.00
12247;BME280;6186;52.022;4.692;2023-07-13T07:26:36;101581.97;;;19.32;100.00
12247;BME280;6186;52.022;4.692;2023-07-13T07:29:01;101596.16;;;19.68;100.00
12247;BME280;6186;52.022;4.692;2023-07-13T07:31:26;101601.13;;;19.93;100.00
12247;BME280;6186;52.022;4.692;2023-07-13T07:33:51;101608.78;;;20.16;100.00
12247;BME280;6186;52.022;4.692;2023-07-13T07:36:17;101606.97;;;20.33;100.00
12247;BME280;6186;52.022;4.692;2023-07-13T07:38:43;101608.56;;;20.37;100.00
12247;BME280;6186;52.022;4.692;2023-07-13T07:41:09;101614.22;;;20.31;100.00
12247;BME280;6186;52.022;4.692;2023-07-13T07:43:34;101604.81;;;20.24;100.00
12247;BME280;6186;52.022;4.692;2023-07-13T07:45:59;101615.16;;;20.13;100.00
12247;BME280;6186;52.022;4.692;2023-07-13T07:48:25;101616.81;;;19.99;100.00
12247;BME280;6186;52.022;4.692;2023-07-13T07:50:50;101609.34;;;19.88;100.00
12247;BME280;6186;52.022;4.692;2023-07-13T07:53:15;101624.91;;;19.80;100.00
12247;BME280;6186;52.022;4.692;2023-07-13T07:55:40;101624.50;;;19.70;100.00
12247;BME280;6186;52.022;4.692;2023-07-13T07:58:06;101624.91;;;19.63;100.00
12247;BME280;6186;52.022;4.692;2023-07-13T08:00:32;101620.88;;;19.54;100.00
12247;BME280;6186;52.022;4.692;2023-07-13T08:02:58;101613.91;;;19.69;100.00
12247;BME280;6186;52.022;4.692;2023-07-13T08:05:23;101620.84;;;19.90;100.00
12247;BME280;6186;52.022;4.692;2023-07-13T08:07:48;101624.78;;;20.00;100.00
12247;BME280;6186;52.022;4.692;2023-07-13T08:10:13;101627.44;;;20.00;100.00
12247;BME280;6186;52.022;4.692;2023-07-13T08:12:40;101639.38;;;19.93;100.00
12247;BME280;6186;52.022;4.692;2023-07-13T08:15:08;101636.09;;;19.88;100.00
12247;BME280;6186;52.022;4.692;2023-07-13T08:17:34;101629.88;;;19.88;100.00
12247;BME280;6186;52.022;4.692;2023-07-13T08:19:59;101629.78;;;20.06;100.00
12247;BME280;6186;52.022;4.692;2023-07-13T08:22:24;101630.28;;;20.31;100.00
12247;BME280;6186;52.022;4.692;2023-07-13T08:24:49;101628.91;;;20.57;100.00
12247;BME280;6186;52.022;4.692;2023-07-13T08:27:15;101629.34;;;20.81;100.00
12247;BME280;6186;52.022;4.692;2023-07-13T08:29:40;101628.69;;;20.93;100.00
12247;BME280;6186;52.022;4.692;2023-07-13T08:32:06;101628.50;;;20.96;100.00
12247;BME280;6186;52.022;4.692;2023-07-13T08:34:32;101623.44;;;21.07;100.00
12247;BME280;6186;52.022;4.692;2023-07-13T08:36:57;101608.25;;;21.23;100.00
12247;BME280;6186;52.022;4.692;2023-07-13T08:39:22;101614.88;;;21.47;100.00
12247;BME280;6186;52.022;4.692;2023-07-13T08:41:54;101619.19;;;21.49;100.00
12247;BME280;6186;52.022;4.692;2023-07-13T08:44:30;101627.16;;;21.51;100.00
12247;BME280;6186;52.022;4.692;2023-07-13T08:47:02;101627.50;;;21.45;100.00
12247;BME280;6186;52.022;4.692;2023-07-13T08:49:29;101635.28;;;21.34;100.00
12247;BME280;6186;52.022;4.692;2023-07-13T08:52:01;101644.97;;;21.21;100.00
12247;BME280;6186;52.022;4.692;2023-07-13T08:54:37;101643.06;;;21.07;100.00
12247;BME280;6186;52.022;4.692;2023-07-13T08:57:14;101652.94;;;20.90;100.00
12247;BME280;6186;52.022;4.692;2023-07-13T08:59:40;101643.69;;;20.80;100.00
12247;BME280;6186;52.022;4.692;2023-07-13T09:02:23;101645.22;;;20.68;100.00
12247;BME280;6186;52.022;4.692;2023-07-13T09:04:58;101653.38;;;20.49;100.00
12247;BME280;6186;52.022;4.692;2023-07-13T09:12:51;101661.03;;;20.23;100.00
12247;BME280;6186;52.022;4.692;2023-07-13T09:17:51;101661.09;;;20.21;100.00
12247;BME280;6186;52.022;4.692;2023-07-13T09:23:35;101653.06;;;20.21;100.00
12247;BME280;6186;52.022;4.692;2023-07-13T09:28:37;101667.06;;;20.43;100.00
12247;BME280;6186;52.022;4.692;2023-07-13T09:31:11;101672.53;;;20.57;100.00
12247;BME280;6186;52.022;4.692;2023-07-13T09:33:38;101664.78;;;20.53;100.00
12247;BME280;6186;52.022;4.692;2023-07-13T09:36:33;101673.50;;;20.56;100.00
12247;BME280;6186;52.022;4.692;2023-07-13T09:39:08;101677.28;;;20.52;100.00
12247;BME280;6186;52.022;4.692;2023-07-13T09:46:32;101683.19;;;20.75;100.00
12247;BME280;6186;52.022;4.692;2023-07-13T09:48:57;101680.94;;;20.67;100.00
12247;BME280;6186;52.022;4.692;2023-07-13T09:51:23;101693.81;;;20.60;100.00
12247;BME280;6186;52.022;4.692;2023-07-13T09:53:49;101691.66;;;20.50;100.00
12247;BME280;6186;52.022;4.692;2023-07-13T09:56:26;101681.78;;;20.35;100.00
12247;BME280;6186;52.022;4.692;2023-07-13T09:58:52;101692.38;;;20.36;100.00
12247;BME280;6186;52.022;4.692;2023-07-13T10:01:31;101700.94;;;20.60;100.00
12247;BME280;6186;52.022;4.692;2023-07-13T10:03:56;101688.31;;;20.79;100.00
12247;BME280;6186;52.022;4.692;2023-07-13T10:06:22;101699.13;;;20.93;100.00
12247;BME280;6186;52.022;4.692;2023-07-13T10:08:49;101696.28;;;21.29;100.00
12247;BME280;6186;52.022;4.692;2023-07-13T10:14:21;101689.91;;;22.08;100.00
12247;BME280;6186;52.022;4.692;2023-07-13T10:16:46;101694.88;;;22.43;100.00
12247;BME280;6186;52.022;4.692;2023-07-13T10:19:21;101701.69;;;22.49;100.00
12247;BME280;6186;52.022;4.692;2023-07-13T10:21:53;101703.69;;;22.61;100.00
12247;BME280;6186;52.022;4.692;2023-07-13T10:24:19;101704.72;;;22.59;100.00
12247;BME280;6186;52.022;4.692;2023-07-13T10:27:01;101715.19;;;22.63;100.00
12247;BME280;6186;52.022;4.692;2023-07-13T10:29:28;101707.53;;;22.85;100.00
12247;BME280;6186;52.022;4.692;2023-07-13T10:31:55;101705.31;;;23.06;100.00
12247;BME280;6186;52.022;4.692;2023-07-13T10:34:20;101698.00;;;23.22;100.00
12247;BME280;6186;52.022;4.692;2023-07-13T10:36:47;101707.81;;;23.37;100.00
12247;BME280;6186;52.022;4.692;2023-07-13T10:39:17;101709.41;;;23.40;100.00
12247;BME280;6186;52.022;4.692;2023-07-13T10:41:45;101708.94;;;23.19;100.00
12247;BME280;6186;52.022;4.692;2023-07-13T10:44:20;101715.09;;;22.93;100.00
12247;BME280;6186;52.022;4.692;2023-07-13T10:46:46;101718.25;;;22.57;100.00
12247;BME280;6186;52.022;4.692;2023-07-13T10:49:12;101731.47;;;22.30;100.00
12247;BME280;6186;52.022;4.692;2023-07-13T10:51:39;101730.41;;;22.03;100.00
12247;BME280;6186;52.022;4.692;2023-07-13T10:56:42;101736.38;;;21.77;100.00
12247;BME280;6186;52.022;4.692;2023-07-13T10:59:18;101736.22;;;21.80;100.00
12247;BME280;6186;52.022;4.692;2023-07-13T11:04:38;101731.09;;;22.36;100.00
12247;BME280;6186;52.022;4.692;2023-07-13T11:07:24;101719.69;;;22.77;100.00
12247;BME280;6186;52.022;4.692;2023-07-13T11:09:52;101730.03;;;23.11;100.00
12247;BME280;6186;52.022;4.692;2023-07-13T11:22:49;101730.47;;;23.33;100.00
12247;BME280;6186;52.022;4.692;2023-07-13T11:27:51;101739.63;;;23.57;100.00
12247;BME280;6186;52.022;4.692;2023-07-13T11:30:24;101734.13;;;23.73;100.00
12247;BME280;6186;52.022;4.692;2023-07-13T11:34:06;101729.94;;;23.81;100.00
12247;BME280;6186;52.022;4.692;2023-07-13T11:36:19;101740.09;;;24.04;100.00
12247;BME280;6186;52.022;4.692;2023-07-13T11:41:24;101747.00;;;24.21;100.00
12247;BME280;6186;52.022;4.692;2023-07-13T11:44:02;101732.84;;;24.32;100.00
12247;BME280;6186;52.022;4.692;2023-07-13T11:46:30;101734.03;;;24.40;100.00
12247;BME280;6186;52.022;4.692;2023-07-13T11:48:55;101751.19;;;24.52;100.00
12247;BME280;6186;52.022;4.692;2023-07-13T11:53:50;101744.13;;;23.97;98.39
12247;BME280;6186;52.022;4.692;2023-07-13T11:56:16;101754.13;;;23.95;99.35
12247;BME280;6186;52.022;4.692;2023-07-13T11:58:42;101750.22;;;24.13;100.00
12247;BME280;6186;52.022;4.692;2023-07-13T12:01:17;101747.81;;;24.36;100.00
12247;BME280;6186;52.022;4.692;2023-07-13T12:03:44;101744.19;;;24.62;100.00
12247;BME280;6186;52.022;4.692;2023-07-13T12:06:23;101757.28;;;24.80;100.00
12247;BME280;6186;52.022;4.692;2023-07-13T12:08:49;101750.81;;;24.83;100.00
12247;BME280;6186;52.022;4.692;2023-07-13T12:11:18;101756.63;;;24.89;99.93
12247;BME280;6186;52.022;4.692;2023-07-13T12:13:45;101750.50;;;25.00;100.00
12247;BME280;6186;52.022;4.692;2023-07-13T12:16:29;101749.19;;;25.18;100.00
12247;BME280;6186;52.022;4.692;2023-07-13T12:18:56;101743.88;;;25.29;99.41
12247;BME280;6186;52.022;4.692;2023-07-13T12:21:28;101742.38;;;25.25;97.29
12247;BME280;6186;52.022;4.692;2023-07-13T12:23:54;101736.56;;;25.06;95.07
12247;BME280;6186;52.022;4.692;2023-07-13T12:26:20;101747.25;;;24.95;93.63
12247;BME280;6186;52.022;4.692;2023-07-13T12:28:53;101742.97;;;24.92;93.57
12247;BME280;6186;52.022;4.692;2023-07-13T12:31:35;101741.44;;;25.01;94.25
12247;BME280;6186;52.022;4.692;2023-07-13T12:34:06;101734.06;;;25.15;94.55
12247;BME280;6186;52.022;4.692;2023-07-13T12:36:35;101736.47;;;25.20;92.75
12247;BME280;6186;52.022;4.692;2023-07-13T12:39:06;101740.31;;;25.29;93.15
12247;BME280;6186;52.022;4.692;2023-07-13T12:41:36;101737.16;;;25.35;92.56
12247;BME280;6186;52.022;4.692;2023-07-13T12:44:07;101741.09;;;25.43;92.94
12247;BME280;6186;52.022;4.692;2023-07-13T12:46:33;101736.41;;;25.58;92.83
12247;BME280;6186;52.022;4.692;2023-07-13T12:48:58;101735.41;;;25.59;91.95
12247;BME280;6186;52.022;4.692;2023-07-13T12:51:25;101742.31;;;25.63;91.99
12247;BME280;6186;52.022;4.692;2023-07-13T12:53:58;101736.06;;;25.62;91.13
12247;BME280;6186;52.022;4.692;2023-07-13T12:56:33;101749.75;;;25.59;90.29
12247;BME280;6186;52.022;4.692;2023-07-13T12:59:01;101743.19;;;25.63;91.00
12247;BME280;6186;52.022;4.692;2023-07-13T13:01:28;101739.47;;;25.77;91.60
12247;BME280;6186;52.022;4.692;2023-07-13T13:03:55;101724.03;;;25.79;90.87
12247;BME280;6186;52.022;4.692;2023-07-13T13:06:28;101747.69;;;25.75;88.98
12247;BME280;6186;52.022;4.692;2023-07-13T13:08:56;101755.78;;;25.75;89.26
12247;BME280;6186;52.022;4.692;2023-07-13T13:11:23;101751.44;;;25.73;88.73
12247;BME280;6186;52.022;4.692;2023-07-13T13:13:49;101755.03;;;25.73;88.56
12247;BME280;6186;52.022;4.692;2023-07-13T13:16:21;101756.22;;;25.69;87.19
12247;BME280;6186;52.022;4.692;2023-07-13T13:18:46;101763.03;;;25.62;86.99
12247;BME280;6186;52.022;4.692;2023-07-13T13:21:12;101776.59;;;25.73;87.39
12247;BME280;6186;52.022;4.692;2023-07-13T13:23:37;101763.31;;;25.70;86.44
12247;BME280;6186;52.022;4.692;2023-07-13T13:26:05;101764.31;;;25.69;85.94
12247;BME280;6186;52.022;4.692;2023-07-13T13:28:31;101772.53;;;25.68;85.77
12247;BME280;6186;52.022;4.692;2023-07-13T13:30:57;101754.41;;;25.57;84.43
12247;BME280;6186;52.022;4.692;2023-07-13T13:33:22;101769.63;;;25.58;84.44
12247;BME280;6186;52.022;4.692;2023-07-13T13:35:47;101765.19;;;25.57;83.44
12247;BME280;6186;52.022;4.692;2023-07-13T13:38:20;101766.69;;;25.61;84.64
12247;BME280;6186;52.022;4.692;2023-07-13T13:40:47;101748.38;;;25.54;83.31
12247;BME280;6186;52.022;4.692;2023-07-13T13:43:26;101774.66;;;25.63;83.25
12247;BME280;6186;52.022;4.692;2023-07-13T13:45:56;101779.75;;;25.67;83.30